sensor_id;sensor_type;location;lat;lon;timestamp;temperature;humidity
9414;DHT22;4746;35.664;139.738;2023-04-23T00:01:13;13.50;99.90
9414;DHT22;4746;35.664;139.738;2023-04-23T00:03:43;13.50;99.90
9414;DHT22;4746;35.664;139.738;2023-04-23T00:06:15;13.50;99.90
9414;DHT22;4746;35.664;139.738;2023-04-23T00:08:44;13.50;99.90
9414;DHT22;4746;35.664;139.738;2023-04-23T00:11:13;13.60;99.90
9414;DHT22;4746;35.664;139.738;2023-04-23T00:13:41;13.60;99.90
9414;DHT22;4746;35.664;139.738;2023-04-23T00:16:10;13.70;99.90
9414;DHT22;4746;35.664;139.738;2023-04-23T00:18:38;13.80;99.90
9414;DHT22;4746;35.664;139.738;2023-04-23T00:21:05;13.90;99.90
9414;DHT22;4746;35.664;139.738;2023-04-23T00:23:34;14.00;99.90
9414;DHT22;4746;35.664;139.738;2023-04-23T00:26:02;14.10;99.90
9414;DHT22;4746;35.664;139.738;2023-04-23T00:28:29;14.10;99.90
9414;DHT22;4746;35.664;139.738;2023-04-23T00:30:57;14.10;99.90
9414;DHT22;4746;35.664;139.738;2023-04-23T00:33:24;14.20;99.90
9414;DHT22;4746;35.664;139.738;2023-04-23T00:35:52;14.30;99.90
9414;DHT22;4746;35.664;139.738;2023-04-23T00:38:19;14.50;99.90
9414;DHT22;4746;35.664;139.738;2023-04-23T00:40:47;14.50;99.90
9414;DHT22;4746;35.664;139.738;2023-04-23T00:43:15;14.60;99.90
9414;DHT22;4746;35.664;139.738;2023-04-23T00:45:43;14.60;99.90
9414;DHT22;4746;35.664;139.738;2023-04-23T00:48:11;14.70;99.90
9414;DHT22;4746;35.664;139.738;2023-04-23T00:50:41;14.80;99.90
9414;DHT22;4746;35.664;139.738;2023-04-23T00:53:08;14.80;99.90
9414;DHT22;4746;35.664;139.738;2023-04-23T00:55:36;14.90;99.90
9414;DHT22;4746;35.664;139.738;2023-04-23T00:58:04;15.00;99.90
9414;DHT22;4746;35.664;139.738;2023-04-23T01:00:34;15.10;99.90
9414;DHT22;4746;35.664;139.738;2023-04-23T01:03:09;15.10;99.90
9414;DHT22;4746;35.664;139.738;2023-04-23T01:05:40;15.10;99.90
9414;DHT22;4746;35.664;139.738;2023-04-23T01:08:14;15.10;99.90
9414;DHT22;4746;35.664;139.738;2023-04-23T01:10:44;15.20;99.90
9414;DHT22;4746;35.664;139.738;2023-04-23T01:13:14;15.30;99.90
9414;DHT22;4746;35.664;139.738;2023-04-23T01:15:43;15.40;99.90
9414;DHT22;4746;35.664;139.738;2023-04-23T01:18:11;15.50;99.90
9414;DHT22;4746;35.664;139.738;2023-04-23T01:20:40;15.50;99.90
9414;DHT22;4746;35.664;139.738;2023-04-23T01:23:09;15.60;99.90
9414;DHT22;4746;35.664;139.738;2023-04-23T01:25:37;15.60;99.90
9414;DHT22;4746;35.664;139.738;2023-04-23T01:28:05;15.70;99.90
9414;DHT22;4746;35.664;139.738;2023-04-23T01:30:34;15.90;99.90
9414;DHT22;4746;35.664;139.738;2023-04-23T01:33:03;16.00;99.90
9414;DHT22;4746;35.664;139.738;2023-04-23T01:35:34;16.20;99.90
9414;DHT22;4746;35.664;139.738;2023-04-23T01:38:11;16.30;99.90
9414;DHT22;4746;35.664;139.738;2023-04-23T01:40:40;16.40;99.90
9414;DHT22;4746;35.664;139.738;2023-04-23T01:43:08;16.50;99.90
9414;DHT22;4746;35.664;139.738;2023-04-23T01:45:36;16.60;99.90
9414;DHT22;4746;35.664;139.738;2023-04-23T01:48:04;16.80;99.90
9414;DHT22;4746;35.664;139.738;2023-04-23T01:50:32;16.90;99.90
9414;DHT22;4746;35.664;139.738;2023-04-23T01:53:00;17.00;99.90
9414;DHT22;4746;35.664;139.738;2023-04-23T01:55:30;17.20;99.90
9414;DHT22;4746;35.664;139.738;2023-04-23T01:58:00;17.20;99.90
9414;DHT22;4746;35.664;139.738;2023-04-23T02:00:27;17.30;99.90
9414;DHT22;4746;35.664;139.738;2023-04-23T02:02:55;17.40;99.90
9414;DHT22;4746;35.664;139.738;2023-04-23T02:05:23;17.40;99.90
9414;DHT22;4746;35.664;139.738;2023-04-23T02:07:54;17.60;99.90
9414;DHT22;4746;35.664;139.738;2023-04-23T02:10:25;17.70;99.90
9414;DHT22;4746;35.664;139.738;2023-04-23T02:12:58;18.00;99.90
9414;DHT22;4746;35.664;139.738;2023-04-23T02:15:27;18.20;99.90
9414;DHT22;4746;35.664;139.738;2023-04-23T02:17:55;18.40;99.90
9414;DHT22;4746;35.664;139.738;2023-04-23T02:20:22;18.50;99.90
9414;DHT22;4746;35.664;139.738;2023-04-23T02:22:50;18.60;99.90
9414;DHT22;4746;35.664;139.738;2023-04-23T02:25:18;18.70;99.90
9414;DHT22;4746;35.664;139.738;2023-04-23T02:27:47;18.90;99.90
9414;DHT22;4746;35.664;139.738;2023-04-23T02:30:15;18.90;99.90
9414;DHT22;4746;35.664;139.738;2023-04-23T02:32:43;19.00;99.90
9414;DHT22;4746;35.664;139.738;2023-04-23T02:35:11;19.10;99.90
9414;DHT22;4746;35.664;139.738;2023-04-23T02:37:38;19.10;99.90
9414;DHT22;4746;35.664;139.738;2023-04-23T02:40:06;19.10;99.90
9414;DHT22;4746;35.664;139.738;2023-04-23T02:42:34;19.20;99.90
9414;DHT22;4746;35.664;139.738;2023-04-23T02:45:02;19.30;99.90
9414;DHT22;4746;35.664;139.738;2023-04-23T02:47:29;19.30;99.90
9414;DHT22;4746;35.664;139.738;2023-04-23T02:49:57;19.30;99.90
9414;DHT22;4746;35.664;139.738;2023-04-23T02:52:28;19.40;99.90
9414;DHT22;4746;35.664;139.738;2023-04-23T02:54:55;19.50;99.90
9414;DHT22;4746;35.664;139.738;2023-04-23T02:57:23;19.50;99.90
9414;DHT22;4746;35.664;139.738;2023-04-23T02:59:50;19.30;99.90
9414;DHT22;4746;35.664;139.738;2023-04-23T03:02:18;19.40;99.90
9414;DHT22;4746;35.664;139.738;2023-04-23T03:04:45;19.50;99.90
9414;DHT22;4746;35.664;139.738;2023-04-23T03:07:13;19.70;99.90
9414;DHT22;4746;35.664;139.738;2023-04-23T03:09:43;19.90;99.90
9414;DHT22;4746;35.664;139.738;2023-04-23T03:12:10;20.10;99.90
9414;DHT22;4746;35.664;139.738;2023-04-23T03:14:38;20.30;99.90
9414;DHT22;4746;35.664;139.738;2023-04-23T03:17:05;20.30;99.90
9414;DHT22;4746;35.664;139.738;2023-04-23T03:19:33;20.20;99.90
9414;DHT22;4746;35.664;139.738;2023-04-23T03:22:00;20.20;99.90
9414;DHT22;4746;35.664;139.738;2023-04-23T03:24:32;20.20;99.90
9414;DHT22;4746;35.664;139.738;2023-04-23T03:27:00;20.20;99.90
9414;DHT22;4746;35.664;139.738;2023-04-23T03:29:28;20.30;99.90
9414;DHT22;4746;35.664;139.738;2023-04-23T03:31:55;20.20;99.90
9414;DHT22;4746;35.664;139.738;2023-04-23T03:34:22;20.30;99.90
9414;DHT22;4746;35.664;139.738;2023-04-23T03:36:50;20.30;99.90
9414;DHT22;4746;35.664;139.738;2023-04-23T03:39:17;20.50;99.90
9414;DHT22;4746;35.664;139.738;2023-04-23T03:41:45;20.70;99.90
9414;DHT22;4746;35.664;139.738;2023-04-23T03:44:12;21.00;99.90
9414;DHT22;4746;35.664;139.738;2023-04-23T03:46:40;21.20;99.90
9414;DHT22;4746;35.664;139.738;2023-04-23T03:49:07;21.30;99.90
9414;DHT22;4746;35.664;139.738;2023-04-23T03:51:35;21.40;99.90
9414;DHT22;4746;35.664;139.738;2023-04-23T03:54:02;21.40;99.90
9414;DHT22;4746;35.664;139.738;2023-04-23T03:56:30;21.50;99.90
9414;DHT22;4746;35.664;139.738;2023-04-23T03:58:57;21.60;99.90
9414;DHT22;4746;35.664;139.738;2023-04-23T04:01:25;21.60;99.90
9414;DHT22;4746;35.664;139.738;2023-04-23T04:03:52;21.80;99.90
9414;DHT22;4746;35.664;139.738;2023-04-23T04:06:19;21.80;99.90
9414;DHT22;4746;35.664;139.738;2023-04-23T04:08:47;22.00;99.90
9414;DHT22;4746;35.664;139.738;2023-04-23T04:11:14;22.20;99.90
9414;DHT22;4746;35.664;139.738;2023-04-23T04:13:42;22.00;99.90
9414;DHT22;4746;35.664;139.738;2023-04-23T04:16:11;22.20;99.90
9414;DHT22;4746;35.664;139.738;2023-04-23T04:18:39;22.50;99.90
9414;DHT22;4746;35.664;139.738;2023-04-23T04:21:06;22.80;99.90
9414;DHT22;4746;35.664;139.738;2023-04-23T04:23:34;23.00;99.90
9414;DHT22;4746;35.664;139.738;2023-04-23T04:26:01;23.20;99.90
9414;DHT22;4746;35.664;139.738;2023-04-23T04:28:30;23.60;99.90
9414;DHT22;4746;35.664;139.738;2023-04-23T04:31:02;23.90;99.90
9414;DHT22;4746;35.664;139.738;2023-04-23T04:33:30;24.20;99.90
9414;DHT22;4746;35.664;139.738;2023-04-23T04:36:00;24.60;99.90
9414;DHT22;4746;35.664;139.738;2023-04-23T04:38:28;25.00;99.90
9414;DHT22;4746;35.664;139.738;2023-04-23T04:40:56;25.30;99.90
9414;DHT22;4746;35.664;139.738;2023-04-23T04:43:27;25.40;99.90
9414;DHT22;4746;35.664;139.738;2023-04-23T04:45:54;25.50;99.90
9414;DHT22;4746;35.664;139.738;2023-04-23T04:48:24;25.60;99.90
9414;DHT22;4746;35.664;139.738;2023-04-23T04:50:52;25.70;99.90
9414;DHT22;4746;35.664;139.738;2023-04-23T04:53:20;25.80;99.90
9414;DHT22;4746;35.664;139.738;2023-04-23T04:55:48;25.90;99.90
9414;DHT22;4746;35.664;139.738;2023-04-23T04:58:15;26.00;99.90
9414;DHT22;4746;35.664;139.738;2023-04-23T05:00:43;26.20;99.90
9414;DHT22;4746;35.664;139.738;2023-04-23T05:03:11;26.30;99.90
9414;DHT22;4746;35.664;139.738;2023-04-23T05:05:39;26.40;99.90
9414;DHT22;4746;35.664;139.738;2023-04-23T05:08:06;26.40;99.90
9414;DHT22;4746;35.664;139.738;2023-04-23T05:10:34;26.40;99.90
9414;DHT22;4746;35.664;139.738;2023-04-23T05:13:02;26.60;99.90
9414;DHT22;4746;35.664;139.738;2023-04-23T05:15:29;26.70;99.90
9414;DHT22;4746;35.664;139.738;2023-04-23T05:17:57;26.80;99.90
9414;DHT22;4746;35.664;139.738;2023-04-23T05:20:24;26.90;99.90
9414;DHT22;4746;35.664;139.738;2023-04-23T05:22:52;26.90;99.90
9414;DHT22;4746;35.664;139.738;2023-04-23T05:25:20;26.90;99.90
9414;DHT22;4746;35.664;139.738;2023-04-23T05:27:47;27.10;99.90
9414;DHT22;4746;35.664;139.738;2023-04-23T05:30:15;27.30;99.90
9414;DHT22;4746;35.664;139.738;2023-04-23T05:32:43;27.60;99.90
9414;DHT22;4746;35.664;139.738;2023-04-23T05:35:10;27.90;99.90
9414;DHT22;4746;35.664;139.738;2023-04-23T05:37:38;27.90;99.90
9414;DHT22;4746;35.664;139.738;2023-04-23T05:40:07;28.00;99.90
9414;DHT22;4746;35.664;139.738;2023-04-23T05:42:35;27.90;99.90
9414;DHT22;4746;35.664;139.738;2023-04-23T05:45:05;28.10;99.90
9414;DHT22;4746;35.664;139.738;2023-04-23T05:47:32;28.40;99.90
9414;DHT22;4746;35.664;139.738;2023-04-23T05:50:00;28.70;99.90
9414;DHT22;4746;35.664;139.738;2023-04-23T05:52:28;29.00;99.90
9414;DHT22;4746;35.664;139.738;2023-04-23T05:55:00;29.20;99.90
9414;DHT22;4746;35.664;139.738;2023-04-23T05:57:28;29.40;99.90
9414;DHT22;4746;35.664;139.738;2023-04-23T05:59:56;29.70;99.90
9414;DHT22;4746;35.664;139.738;2023-04-23T06:02:23;30.10;99.90
9414;DHT22;4746;35.664;139.738;2023-04-23T06:04:51;30.50;99.90
9414;DHT22;4746;35.664;139.738;2023-04-23T06:07:19;30.90;99.90
9414;DHT22;4746;35.664;139.738;2023-04-23T06:09:46;31.30;99.90
9414;DHT22;4746;35.664;139.738;2023-04-23T06:12:13;31.30;99.90
9414;DHT22;4746;35.664;139.738;2023-04-23T06:14:41;31.70;99.90
9414;DHT22;4746;35.664;139.738;2023-04-23T06:17:09;31.80;99.90
9414;DHT22;4746;35.664;139.738;2023-04-23T06:19:36;31.80;99.90
9414;DHT22;4746;35.664;139.738;2023-04-23T06:22:04;31.60;99.90
9414;DHT22;4746;35.664;139.738;2023-04-23T06:24:31;31.80;99.90
9414;DHT22;4746;35.664;139.738;2023-04-23T06:26:59;32.00;99.90
9414;DHT22;4746;35.664;139.738;2023-04-23T06:29:28;32.50;99.90
9414;DHT22;4746;35.664;139.738;2023-04-23T06:31:56;32.50;99.90
9414;DHT22;4746;35.664;139.738;2023-04-23T06:34:27;33.00;99.90
9414;DHT22;4746;35.664;139.738;2023-04-23T06:36:55;33.50;99.90
9414;DHT22;4746;35.664;139.738;2023-04-23T06:39:22;33.90;99.90
9414;DHT22;4746;35.664;139.738;2023-04-23T06:41:50;34.40;99.90
9414;DHT22;4746;35.664;139.738;2023-04-23T06:44:18;34.90;99.90
9414;DHT22;4746;35.664;139.738;2023-04-23T06:46:46;35.40;99.90
9414;DHT22;4746;35.664;139.738;2023-04-23T06:49:13;35.80;99.90
9414;DHT22;4746;35.664;139.738;2023-04-23T06:51:41;36.20;99.90
9414;DHT22;4746;35.664;139.738;2023-04-23T06:54:09;36.60;99.90
9414;DHT22;4746;35.664;139.738;2023-04-23T06:56:37;36.80;99.90
9414;DHT22;4746;35.664;139.738;2023-04-23T06:59:04;37.00;99.90
9414;DHT22;4746;35.664;139.738;2023-04-23T07:01:32;37.20;99.90
9414;DHT22;4746;35.664;139.738;2023-04-23T07:04:00;37.40;99.90
9414;DHT22;4746;35.664;139.738;2023-04-23T07:06:27;37.10;99.90
9414;DHT22;4746;35.664;139.738;2023-04-23T07:08:56;37.60;99.90
9414;DHT22;4746;35.664;139.738;2023-04-23T07:11:24;37.50;99.90
9414;DHT22;4746;35.664;139.738;2023-04-23T07:13:52;37.20;99.90
9414;DHT22;4746;35.664;139.738;2023-04-23T07:16:19;37.30;99.90
9414;DHT22;4746;35.664;139.738;2023-04-23T07:18:48;36.90;99.90
9414;DHT22;4746;35.664;139.738;2023-04-23T07:21:16;37.00;99.90
9414;DHT22;4746;35.664;139.738;2023-04-23T07:23:43;36.30;99.90
9414;DHT22;4746;35.664;139.738;2023-04-23T07:26:11;36.20;99.90
9414;DHT22;4746;35.664;139.738;2023-04-23T07:28:39;36.30;99.90
9414;DHT22;4746;35.664;139.738;2023-04-23T07:31:06;36.30;99.90
9414;DHT22;4746;35.664;139.738;2023-04-23T07:33:34;36.30;99.90
9414;DHT22;4746;35.664;139.738;2023-04-23T07:36:01;36.20;99.90
9414;DHT22;4746;35.664;139.738;2023-04-23T07:38:29;35.90;99.90
9414;DHT22;4746;35.664;139.738;2023-04-23T07:40:56;35.70;99.90
9414;DHT22;4746;35.664;139.738;2023-04-23T07:43:24;35.40;99.90
9414;DHT22;4746;35.664;139.738;2023-04-23T07:45:52;35.20;99.90
9414;DHT22;4746;35.664;139.738;2023-04-23T07:48:19;34.30;99.90
9414;DHT22;4746;35.664;139.738;2023-04-23T07:50:46;34.10;99.90
9414;DHT22;4746;35.664;139.738;2023-04-23T07:53:14;34.00;99.90
9414;DHT22;4746;35.664;139.738;2023-04-23T07:55:41;33.60;99.90
9414;DHT22;4746;35.664;139.738;2023-04-23T07:58:09;33.00;99.90
9414;DHT22;4746;35.664;139.738;2023-04-23T08:00:36;32.50;99.90
9414;DHT22;4746;35.664;139.738;2023-04-23T08:03:04;31.80;99.90
9414;DHT22;4746;35.664;139.738;2023-04-23T08:05:32;31.50;99.90
9414;DHT22;4746;35.664;139.738;2023-04-23T08:07:59;31.20;99.90
9414;DHT22;4746;35.664;139.738;2023-04-23T08:10:26;31.00;99.90
9414;DHT22;4746;35.664;139.738;2023-04-23T08:12:54;30.80;99.90
9414;DHT22;4746;35.664;139.738;2023-04-23T08:15:21;29.90;99.90
9414;DHT22;4746;35.664;139.738;2023-04-23T08:17:49;28.80;99.90
9414;DHT22;4746;35.664;139.738;2023-04-23T08:20:17;28.20;99.90
9414;DHT22;4746;35.664;139.738;2023-04-23T08:22:45;27.60;99.90
9414;DHT22;4746;35.664;139.738;2023-04-23T08:25:12;27.50;99.90
9414;DHT22;4746;35.664;139.738;2023-04-23T08:27:40;27.30;99.90
9414;DHT22;4746;35.664;139.738;2023-04-23T08:30:08;27.10;99.90
9414;DHT22;4746;35.664;139.738;2023-04-23T08:32:37;26.90;99.90
9414;DHT22;4746;35.664;139.738;2023-04-23T08:35:08;26.70;99.90
9414;DHT22;4746;35.664;139.738;2023-04-23T08:37:36;26.50;99.90
9414;DHT22;4746;35.664;139.738;2023-04-23T08:40:06;26.20;99.90
9414;DHT22;4746;35.664;139.738;2023-04-23T08:42:48;25.90;99.90
9414;DHT22;4746;35.664;139.738;2023-04-23T08:45:20;25.50;99.90
9414;DHT22;4746;35.664;139.738;2023-04-23T08:47:49;24.60;99.90
9414;DHT22;4746;35.664;139.738;2023-04-23T08:50:17;24.40;99.90
9414;DHT22;4746;35.664;139.738;2023-04-23T08:52:55;24.10;99.90
9414;DHT22;4746;35.664;139.738;2023-04-23T08:55:24;23.80;99.90
9414;DHT22;4746;35.664;139.738;2023-04-23T08:57:52;23.70;99.90
9414;DHT22;4746;35.664;139.738;2023-04-23T09:00:20;23.00;99.90
9414;DHT22;4746;35.664;139.738;2023-04-23T09:02:51;21.40;99.90
9414;DHT22;4746;35.664;139.738;2023-04-23T09:05:19;20.80;99.90
9414;DHT22;4746;35.664;139.738;2023-04-23T09:07:47;19.80;99.90
9414;DHT22;4746;35.664;139.738;2023-04-23T09:10:14;19.40;99.90
9414;DHT22;4746;35.664;139.738;2023-04-23T09:12:42;19.30;99.90
9414;DHT22;4746;35.664;139.738;2023-04-23T09:15:11;19.10;99.90
9414;DHT22;4746;35.664;139.738;2023-04-23T09:17:48;18.90;99.90
9414;DHT22;4746;35.664;139.738;2023-04-23T09:20:16;18.80;99.90
9414;DHT22;4746;35.664;139.738;2023-04-23T09:22:49;18.60;99.90
9414;DHT22;4746;35.664;139.738;2023-04-23T09:25:22;18.40;99.90
9414;DHT22;4746;35.664;139.738;2023-04-23T09:27:51;18.10;99.90
9414;DHT22;4746;35.664;139.738;2023-04-23T09:30:19;18.00;99.90
9414;DHT22;4746;35.664;139.738;2023-04-23T09:32:48;18.00;99.90
9414;DHT22;4746;35.664;139.738;2023-04-23T09:35:18;17.70;99.90
9414;DHT22;4746;35.664;139.738;2023-04-23T09:37:48;17.60;99.90
9414;DHT22;4746;35.664;139.738;2023-04-23T09:40:23;17.50;99.90
9414;DHT22;4746;35.664;139.738;2023-04-23T09:42:52;17.50;99.90
9414;DHT22;4746;35.664;139.738;2023-04-23T09:45:21;17.40;99.90
9414;DHT22;4746;35.664;139.738;2023-04-23T09:47:53;17.30;99.90
9414;DHT22;4746;35.664;139.738;2023-04-23T09:50:39;17.30;99.90
9414;DHT22;4746;35.664;139.738;2023-04-23T09:53:09;17.30;99.90
9414;DHT22;4746;35.664;139.738;2023-04-23T09:55:40;17.20;99.90
9414;DHT22;4746;35.664;139.738;2023-04-23T09:58:13;17.20;99.90
9414;DHT22;4746;35.664;139.738;2023-04-23T10:00:41;17.10;99.90
9414;DHT22;4746;35.664;139.738;2023-04-23T10:03:09;17.10;99.90
9414;DHT22;4746;35.664;139.738;2023-04-23T10:05:41;16.90;99.90
9414;DHT22;4746;35.664;139.738;2023-04-23T10:08:09;16.90;99.90
9414;DHT22;4746;35.664;139.738;2023-04-23T10:10:39;16.90;99.90
9414;DHT22;4746;35.664;139.738;2023-04-23T10:13:07;16.80;99.90
9414;DHT22;4746;35.664;139.738;2023-04-23T10:15:35;16.70;99.90
9414;DHT22;4746;35.664;139.738;2023-04-23T10:18:03;16.60;99.90
9414;DHT22;4746;35.664;139.738;2023-04-23T10:20:33;16.60;99.90
9414;DHT22;4746;35.664;139.738;2023-04-23T10:23:04;16.60;99.90
9414;DHT22;4746;35.664;139.738;2023-04-23T10:25:35;16.50;99.90
9414;DHT22;4746;35.664;139.738;2023-04-23T10:28:08;16.50;99.90
9414;DHT22;4746;35.664;139.738;2023-04-23T10:30:40;16.40;99.90
9414;DHT22;4746;35.664;139.738;2023-04-23T10:33:11;16.40;99.90
9414;DHT22;4746;35.664;139.738;2023-04-23T10:35:40;16.30;99.90
9414;DHT22;4746;35.664;139.738;2023-04-23T10:38:08;16.10;99.90
9414;DHT22;4746;35.664;139.738;2023-04-23T10:40:38;16.10;99.90
9414;DHT22;4746;35.664;139.738;2023-04-23T10:43:11;16.10;99.90
9414;DHT22;4746;35.664;139.738;2023-04-23T10:45:39;16.00;99.90
9414;DHT22;4746;35.664;139.738;2023-04-23T10:48:07;15.90;99.90
9414;DHT22;4746;35.664;139.738;2023-04-23T10:50:35;15.90;99.90
9414;DHT22;4746;35.664;139.738;2023-04-23T10:53:03;15.90;99.90
9414;DHT22;4746;35.664;139.738;2023-04-23T10:55:31;15.80;99.90
9414;DHT22;4746;35.664;139.738;2023-04-23T10:58:06;15.80;99.90
9414;DHT22;4746;35.664;139.738;2023-04-23T11:00:46;15.70;99.90
9414;DHT22;4746;35.664;139.738;2023-04-23T11:06:03;15.70;99.90
9414;DHT22;4746;35.664;139.738;2023-04-23T11:08:34;15.60;99.90
9414;DHT22;4746;35.664;139.738;2023-04-23T11:11:06;15.70;99.90
9414;DHT22;4746;35.664;139.738;2023-04-23T11:13:34;15.60;99.90
9414;DHT22;4746;35.664;139.738;2023-04-23T11:16:25;15.70;99.90
9414;DHT22;4746;35.664;139.738;2023-04-23T11:19:12;15.80;99.90
9414;DHT22;4746;35.664;139.738;2023-04-23T11:22:03;15.80;99.90
9414;DHT22;4746;35.664;139.738;2023-04-23T11:24:35;15.70;99.90
9414;DHT22;4746;35.664;139.738;2023-04-23T11:27:09;15.70;99.90
9414;DHT22;4746;35.664;139.738;2023-04-23T11:29:42;15.60;99.90
9414;DHT22;4746;35.664;139.738;2023-04-23T11:32:14;15.60;99.90
9414;DHT22;4746;35.664;139.738;2023-04-23T11:34:44;15.60;99.90
9414;DHT22;4746;35.664;139.738;2023-04-23T11:37:17;15.60;99.90
9414;DHT22;4746;35.664;139.738;2023-04-23T11:39:45;15.60;99.90
9414;DHT22;4746;35.664;139.738;2023-04-23T11:42:15;15.60;99.90
9414;DHT22;4746;35.664;139.738;2023-04-23T11:44:45;15.60;99.90
9414;DHT22;4746;35.664;139.738;2023-04-23T11:47:14;15.60;99.90
9414;DHT22;4746;35.664;139.738;2023-04-23T11:49:44;15.60;99.90
9414;DHT22;4746;35.664;139.738;2023-04-23T11:52:13;15.60;99.90
9414;DHT22;4746;35.664;139.738;2023-04-23T11:54:41;15.60;99.90
9414;DHT22;4746;35.664;139.738;2023-04-23T11:57:08;15.60;99.90
9414;DHT22;4746;35.664;139.738;2023-04-23T11:59:37;15.60;99.90
9414;DHT22;4746;35.664;139.738;2023-04-23T12:02:04;15.70;99.90
9414;DHT22;4746;35.664;139.738;2023-04-23T12:04:32;15.70;99.90
9414;DHT22;4746;35.664;139.738;2023-04-23T12:07:00;15.70;99.90
9414;DHT22;4746;35.664;139.738;2023-04-23T12:09:28;15.70;99.90
9414;DHT22;4746;35.664;139.738;2023-04-23T12:11:56;15.70;99.90
9414;DHT22;4746;35.664;139.738;2023-04-23T12:14:28;15.70;99.90
9414;DHT22;4746;35.664;139.738;2023-04-23T12:16:57;15.80;99.90
9414;DHT22;4746;35.664;139.738;2023-04-23T12:19:36;15.80;99.90
9414;DHT22;4746;35.664;139.738;2023-04-23T12:22:05;15.80;99.90
9414;DHT22;4746;35.664;139.738;2023-04-23T12:24:47;15.80;99.90
9414;DHT22;4746;35.664;139.738;2023-04-23T12:27:19;15.80;99.90
9414;DHT22;4746;35.664;139.738;2023-04-23T12:29:48;15.80;99.90
9414;DHT22;4746;35.664;139.738;2023-04-23T12:32:25;15.80;99.90
9414;DHT22;4746;35.664;139.738;2023-04-23T12:34:56;15.80;99.90
9414;DHT22;4746;35.664;139.738;2023-04-23T12:37:26;15.80;99.90
9414;DHT22;4746;35.664;139.738;2023-04-23T12:39:56;15.80;99.90
9414;DHT22;4746;35.664;139.738;2023-04-23T12:42:25;15.80;99.90
9414;DHT22;4746;35.664;139.738;2023-04-23T12:44:52;15.80;99.90
9414;DHT22;4746;35.664;139.738;2023-04-23T12:47:23;15.80;99.90
9414;DHT22;4746;35.664;139.738;2023-04-23T12:49:51;15.80;99.90
9414;DHT22;4746;35.664;139.738;2023-04-23T12:52:20;15.70;99.90
9414;DHT22;4746;35.664;139.738;2023-04-23T12:54:48;15.60;99.90
9414;DHT22;4746;35.664;139.738;2023-04-23T12:57:21;15.60;99.90
9414;DHT22;4746;35.664;139.738;2023-04-23T12:59:49;15.50;99.90
9414;DHT22;4746;35.664;139.738;2023-04-23T13:02:17;15.40;99.90
9414;DHT22;4746;35.664;139.738;2023-04-23T13:04:45;15.40;99.90
9414;DHT22;4746;35.664;139.738;2023-04-23T13:07:13;15.40;99.90
9414;DHT22;4746;35.664;139.738;2023-04-23T13:09:40;15.30;99.90
9414;DHT22;4746;35.664;139.738;2023-04-23T13:12:08;15.20;99.90
9414;DHT22;4746;35.664;139.738;2023-04-23T13:14:38;15.10;99.90
9414;DHT22;4746;35.664;139.738;2023-04-23T13:17:05;15.10;99.90
9414;DHT22;4746;35.664;139.738;2023-04-23T13:19:33;15.10;99.90
9414;DHT22;4746;35.664;139.738;2023-04-23T13:22:02;15.10;99.90
9414;DHT22;4746;35.664;139.738;2023-04-23T13:24:30;15.00;99.90
9414;DHT22;4746;35.664;139.738;2023-04-23T13:26:58;15.00;99.90
9414;DHT22;4746;35.664;139.738;2023-04-23T13:29:27;14.90;99.90
9414;DHT22;4746;35.664;139.738;2023-04-23T13:31:55;14.90;99.90
9414;DHT22;4746;35.664;139.738;2023-04-23T13:34:23;14.90;99.90
9414;DHT22;4746;35.664;139.738;2023-04-23T13:36:51;14.80;99.90
9414;DHT22;4746;35.664;139.738;2023-04-23T13:39:18;14.80;99.90
9414;DHT22;4746;35.664;139.738;2023-04-23T13:41:46;14.80;99.90
9414;DHT22;4746;35.664;139.738;2023-04-23T13:44:14;14.70;99.90
9414;DHT22;4746;35.664;139.738;2023-04-23T13:46:42;14.80;99.90
9414;DHT22;4746;35.664;139.738;2023-04-23T13:49:09;14.70;99.90
9414;DHT22;4746;35.664;139.738;2023-04-23T13:51:37;14.70;99.90
9414;DHT22;4746;35.664;139.738;2023-04-23T13:54:04;14.60;99.90
9414;DHT22;4746;35.664;139.738;2023-04-23T13:56:33;14.60;99.90
9414;DHT22;4746;35.664;139.738;2023-04-23T13:59:02;14.50;99.90
9414;DHT22;4746;35.664;139.738;2023-04-23T14:01:30;14.40;99.90
9414;DHT22;4746;35.664;139.738;2023-04-23T14:03:57;14.40;99.90
9414;DHT22;4746;35.664;139.738;2023-04-23T14:06:25;14.50;99.90
9414;DHT22;4746;35.664;139.738;2023-04-23T14:08:53;14.50;99.90
9414;DHT22;4746;35.664;139.738;2023-04-23T14:11:20;14.40;99.90
9414;DHT22;4746;35.664;139.738;2023-04-23T14:13:48;14.40;99.90
9414;DHT22;4746;35.664;139.738;2023-04-23T14:16:16;14.30;99.90
9414;DHT22;4746;35.664;139.738;2023-04-23T14:18:43;14.30;99.90
9414;DHT22;4746;35.664;139.738;2023-04-23T14:21:11;14.30;99.90
9414;DHT22;4746;35.664;139.738;2023-04-23T14:23:54;14.30;99.90
9414;DHT22;4746;35.664;139.738;2023-04-23T14:26:35;14.30;99.90
9414;DHT22;4746;35.664;139.738;2023-04-23T14:29:35;14.30;99.90
9414;DHT22;4746;35.664;139.738;2023-04-23T14:32:07;14.20;99.90
9414;DHT22;4746;35.664;139.738;2023-04-23T14:34:34;14.20;99.90
9414;DHT22;4746;35.664;139.738;2023-04-23T14:37:02;14.10;99.90
9414;DHT22;4746;35.664;139.738;2023-04-23T14:39:30;14.10;99.90
9414;DHT22;4746;35.664;139.738;2023-04-23T14:42:00;14.00;99.90
9414;DHT22;4746;35.664;139.738;2023-04-23T14:44:28;14.00;99.90
9414;DHT22;4746;35.664;139.738;2023-04-23T14:46:55;14.00;99.90
9414;DHT22;4746;35.664;139.738;2023-04-23T14:49:23;13.80;99.90
9414;DHT22;4746;35.664;139.738;2023-04-23T14:51:52;13.90;99.90
9414;DHT22;4746;35.664;139.738;2023-04-23T14:54:20;13.90;99.90
9414;DHT22;4746;35.664;139.738;2023-04-23T14:56:51;13.90;99.90
9414;DHT22;4746;35.664;139.738;2023-04-23T14:59:19;13.90;99.90
9414;DHT22;4746;35.664;139.738;2023-04-23T15:01:49;13.80;99.90
9414;DHT22;4746;35.664;139.738;2023-04-23T15:04:17;13.80;99.90
9414;DHT22;4746;35.664;139.738;2023-04-23T15:06:45;13.80;99.90
9414;DHT22;4746;35.664;139.738;2023-04-23T15:09:12;13.80;99.90
9414;DHT22;4746;35.664;139.738;2023-04-23T15:11:40;13.80;99.90
9414;DHT22;4746;35.664;139.738;2023-04-23T15:14:18;13.70;99.90
9414;DHT22;4746;35.664;139.738;2023-04-23T15:17:06;13.70;99.90
9414;DHT22;4746;35.664;139.738;2023-04-23T15:19:33;13.70;99.90
9414;DHT22;4746;35.664;139.738;2023-04-23T15:22:01;13.70;99.90
9414;DHT22;4746;35.664;139.738;2023-04-23T15:24:28;13.70;99.90
9414;DHT22;4746;35.664;139.738;2023-04-23T15:26:56;13.70;99.90
9414;DHT22;4746;35.664;139.738;2023-04-23T15:29:24;13.70;99.90
9414;DHT22;4746;35.664;139.738;2023-04-23T15:31:52;13.60;99.90
9414;DHT22;4746;35.664;139.738;2023-04-23T15:34:23;13.60;99.90
9414;DHT22;4746;35.664;139.738;2023-04-23T15:36:51;13.60;99.90
9414;DHT22;4746;35.664;139.738;2023-04-23T15:39:18;13.50;99.90
9414;DHT22;4746;35.664;139.738;2023-04-23T15:41:46;13.50;99.90
9414;DHT22;4746;35.664;139.738;2023-04-23T15:44:14;13.50;99.90